Time;durP1;ratioP1;P1;durP2;ratioP2;P2;SDS_P1;SDS_P2;PMS_P1;PMS_P2;Temp;Humidity;BMP_temperature;BMP_pressure;BME280_temperature;BME280_humidity;BME280_pressure;Samples;Min_cycle;Max_cycle;Signal;HPM_P1;HPM_P2
2023/12/18 00:00:24;;;;;;;33.75;16.45;;;;;2.90;100356.00;;;;5031297;28;20056;-63
2023/12/18 00:02:51;;;;;;;35.88;16.25;;;;;2.90;100350.00;;;;5032221;28;20048;-63
2023/12/18 00:05:17;;;;;;;30.77;14.95;;;;;2.90;100349.00;;;;5030196;28;20047;-63
2023/12/18 00:07:44;;;;;;;29.73;14.30;;;;;2.80;100344.00;;;;5032312;28;20046;-63
2023/12/18 00:10:11;;;;;;;33.67;15.32;;;;;2.80;100342.00;;;;5032571;28;20045;-62
2023/12/18 00:12:37;;;;;;;24.80;13.75;;;;;2.70;100337.00;;;;5032406;28;20037;-61
2023/12/18 00:15:06;;;;;;;29.15;14.77;;;;;2.70;100339.00;;;;5030401;28;20045;-60
2023/12/18 00:17:33;;;;;;;26.02;14.90;;;;;2.70;100335.00;;;;5032298;28;20487;-60
2023/12/18 00:20:00;;;;;;;26.02;14.48;;;;;2.60;100331.00;;;;5032388;28;20041;-62
2023/12/18 00:22:30;;;;;;;24.75;13.90;;;;;2.60;100342.00;;;;5032161;28;20045;-62
2023/12/18 00:24:57;;;;;;;20.38;13.30;;;;;2.50;100325.00;;;;5031621;28;20558;-62
2023/12/18 00:27:23;;;;;;;30.45;15.52;;;;;2.50;100335.00;;;;5032031;28;20038;-62
2023/12/18 00:29:50;;;;;;;21.02;13.75;;;;;2.50;100335.00;;;;5032165;28;20491;-61
2023/12/18 00:32:16;;;;;;;23.15;12.45;;;;;2.50;100337.00;;;;5032116;28;20491;-62
2023/12/18 00:34:43;;;;;;;21.58;14.23;;;;;2.40;100330.00;;;;5031435;28;20124;-61
2023/12/18 00:37:10;;;;;;;18.92;12.88;;;;;2.40;100318.00;;;;5032018;28;20101;-62
2023/12/18 00:39:37;;;;;;;22.13;13.65;;;;;2.50;100309.00;;;;5032055;28;20136;-62
2023/12/18 00:42:04;;;;;;;23.70;13.85;;;;;2.50;100307.00;;;;5031878;28;20060;-62
2023/12/18 00:44:31;;;;;;;23.35;14.70;;;;;2.60;100301.00;;;;5031346;28;20657;-62
2023/12/18 00:46:57;;;;;;;20.02;13.77;;;;;2.60;100303.00;;;;5031967;28;20073;-61
2023/12/18 00:49:27;;;;;;;19.65;14.20;;;;;2.60;100302.00;;;;5031991;28;20037;-63
2023/12/18 00:51:55;;;;;;;19.67;13.75;;;;;2.60;100302.00;;;;5032002;28;20049;-63
2023/12/18 00:54:21;;;;;;;19.80;13.18;;;;;2.60;100298.00;;;;5031262;28;20056;-61
2023/12/18 00:56:48;;;;;;;17.70;13.63;;;;;2.50;100303.00;;;;5031737;28;20060;-63
2023/12/18 00:59:15;;;;;;;17.65;13.25;;;;;2.50;100302.00;;;;5032067;28;20047;-62
2023/12/18 01:01:42;;;;;;;17.17;12.10;;;;;2.50;100310.00;;;;5031913;28;20037;-61
2023/12/18 01:04:09;;;;;;;19.00;12.40;;;;;2.40;100297.00;;;;5031200;28;20045;-62
2023/12/18 01:06:35;;;;;;;23.30;12.93;;;;;2.40;100295.00;;;;5030580;28;20504;-62
2023/12/18 01:09:03;;;;;;;19.17;13.32;;;;;2.40;100297.00;;;;5031656;28;20064;-62
2023/12/18 01:11:29;;;;;;;19.52;12.55;;;;;2.40;100301.00;;;;5031732;28;20128;-62
2023/12/18 01:13:56;;;;;;;18.02;12.88;;;;;2.40;100303.00;;;;5031215;28;20498;-62
2023/12/18 01:16:22;;;;;;;20.40;13.25;;;;;2.30;100308.00;;;;5034816;28;20048;-64
2023/12/18 01:18:49;;;;;;;17.23;12.63;;;;;2.30;100290.00;;;;5034468;28;20050;-62
2023/12/18 01:21:17;;;;;;;17.73;12.40;;;;;2.20;100293.00;;;;5034381;28;20076;-62
2023/12/18 01:23:43;;;;;;;20.13;12.13;;;;;2.20;100296.00;;;;5034806;28;20280;-62
2023/12/18 01:26:10;;;;;;;19.15;11.85;;;;;2.20;100286.00;;;;5035424;28;20495;-62
2023/12/18 01:28:37;;;;;;;15.25;12.05;;;;;2.30;100285.00;;;;5035445;28;20041;-63
2023/12/18 01:31:04;;;;;;;17.05;11.90;;;;;2.30;100281.00;;;;5035428;28;20121;-62
2023/12/18 01:33:31;;;;;;;17.48;12.02;;;;;2.20;100279.00;;;;5034667;28;20505;-61
2023/12/18 01:35:57;;;;;;;17.95;11.82;;;;;2.20;100274.00;;;;5035385;28;20048;-63
2023/12/18 01:38:24;;;;;;;17.55;12.50;;;;;2.20;100270.00;;;;5035144;28;20045;-62
2023/12/18 01:40:50;;;;;;;16.67;11.98;;;;;2.30;100265.00;;;;5035501;28;20048;-62
2023/12/18 01:43:24;;;;;;;17.25;12.77;;;;;2.30;100281.00;;;;5035343;28;20064;-61
2023/12/18 01:45:57;;;;;;;17.02;12.23;;;;;2.30;100266.00;;;;5035252;28;20561;-62
2023/12/18 01:48:25;;;;;;;19.92;12.52;;;;;2.20;100274.00;;;;5034126;28;20091;-62
2023/12/18 01:50:54;;;;;;;19.40;13.15;;;;;2.20;100279.00;;;;5035400;28;20037;-62
2023/12/18 01:53:27;;;;;;;18.88;13.27;;;;;2.10;100271.00;;;;5034942;28;20487;-62
2023/12/18 01:55:54;;;;;;;18.52;12.80;;;;;2.00;100271.00;;;;5033830;28;20050;-62
2023/12/18 01:58:21;;;;;;;17.13;12.93;;;;;2.00;100273.00;;;;5034962;28;20112;-62
2023/12/18 02:00:48;;;;;;;21.40;12.88;;;;;2.10;100266.00;;;;5034875;28;20057;-63
2023/12/18 02:03:16;;;;;;;19.13;12.82;;;;;2.10;100271.00;;;;5033735;28;20414;-62
2023/12/18 02:05:44;;;;;;;19.95;13.57;;;;;2.10;100271.00;;;;5033992;28;20415;-62
2023/12/18 02:08:10;;;;;;;19.17;13.05;;;;;2.10;100267.00;;;;5034517;28;20051;-62
2023/12/18 02:10:37;;;;;;;18.02;13.18;;;;;2.10;100262.00;;;;5034727;28;20045;-63
2023/12/18 02:13:04;;;;;;;16.02;12.30;;;;;2.10;100266.00;;;;5034623;28;20486;-63
2023/12/18 02:15:30;;;;;;;16.88;12.60;;;;;2.10;100275.00;;;;5034018;28;20042;-64
2023/12/18 02:17:57;;;;;;;19.88;12.98;;;;;2.10;100270.00;;;;5034420;28;20056;-62
2023/12/18 02:20:23;;;;;;;16.80;12.13;;;;;2.00;100284.00;;;;5034523;28;20453;-62
2023/12/18 02:22:51;;;;;;;19.98;12.88;;;;;2.00;100280.00;;;;5034257;28;20049;-62
2023/12/18 02:25:19;;;;;;;17.10;12.05;;;;;1.80;100279.00;;;;5033818;28;20052;-62
2023/12/18 02:27:50;;;;;;;18.77;13.05;;;;;1.80;100272.00;;;;5032099;28;20538;-61
2023/12/18 02:30:19;;;;;;;41.08;13.57;;;;;1.70;100273.00;;;;5034439;28;20124;-62
2023/12/18 02:32:46;;;;;;;35.20;13.82;;;;;1.70;100277.00;;;;5034323;28;20046;-62
2023/12/18 02:35:13;;;;;;;19.63;13.15;;;;;1.70;100273.00;;;;5033703;28;20091;-63
2023/12/18 02:37:40;;;;;;;20.02;14.02;;;;;1.70;100264.00;;;;5034120;28;20387;-61
2023/12/18 02:40:07;;;;;;;19.05;13.25;;;;;1.80;100259.00;;;;5034231;28;20461;-61
2023/12/18 02:42:34;;;;;;;17.13;12.32;;;;;1.80;100264.00;;;;5034152;28;20453;-62
2023/12/18 02:45:04;;;;;;;15.25;11.93;;;;;1.80;100265.00;;;;5033498;28;20128;-62
2023/12/18 02:47:30;;;;;;;18.27;12.63;;;;;1.80;100269.00;;;;5034057;28;20041;-62
2023/12/18 02:49:57;;;;;;;24.25;14.38;;;;;1.90;100261.00;;;;5033984;28;20037;-62
2023/12/18 02:52:24;;;;;;;21.08;13.20;;;;;1.90;100264.00;;;;5034001;28;20045;-62
2023/12/18 02:54:50;;;;;;;48.72;14.70;;;;;1.90;100271.00;;;;5033255;28;20506;-61
2023/12/18 02:57:17;;;;;;;56.30;16.40;;;;;1.90;100256.00;;;;5033869;28;20083;-62
2023/12/18 02:59:43;;;;;;;57.33;15.75;;;;;1.90;100254.00;;;;5034002;28;20050;-61
2023/12/18 03:02:10;;;;;;;60.25;16.52;;;;;1.90;100246.00;;;;5033655;28;20052;-61
2023/12/18 03:04:40;;;;;;;61.15;15.05;;;;;2.00;100247.00;;;;5033053;28;20052;-62
2023/12/18 03:07:08;;;;;;;79.10;17.63;;;;;1.90;100238.00;;;;5032300;28;20144;-62
2023/12/18 03:09:35;;;;;;;65.78;16.75;;;;;1.80;100239.00;;;;5033592;28;20112;-60
2023/12/18 03:12:02;;;;;;;55.78;16.25;;;;;1.80;100232.00;;;;5033648;28;20056;-62
2023/12/18 03:14:29;;;;;;;89.63;16.80;;;;;1.80;100229.00;;;;5033057;28;20049;-62
2023/12/18 03:16:56;;;;;;;55.90;16.30;;;;;1.80;100229.00;;;;5033361;28;20124;-60
2023/12/18 03:19:22;;;;;;;48.65;16.13;;;;;1.80;100229.00;;;;5033457;28;20124;-62
2023/12/18 03:21:49;;;;;;;60.97;15.68;;;;;1.80;100229.00;;;;5033251;28;20137;-61
2023/12/18 03:24:15;;;;;;;40.60;15.00;;;;;1.80;100226.00;;;;5032851;28;20451;-61
2023/12/18 03:26:42;;;;;;;35.13;15.05;;;;;1.80;100214.00;;;;5033419;28;20124;-61
2023/12/18 03:29:09;;;;;;;54.33;16.05;;;;;1.80;100217.00;;;;5033967;28;20045;-63
2023/12/18 03:31:35;;;;;;;32.35;15.52;;;;;1.90;100222.00;;;;5034386;28;20052;-62
2023/12/18 03:34:02;;;;;;;52.55;16.38;;;;;1.90;100225.00;;;;5035443;28;20049;-61
2023/12/18 03:36:29;;;;;;;27.38;13.77;;;;;1.90;100230.00;;;;5035832;28;20410;-62
2023/12/18 03:38:55;;;;;;;45.95;16.60;;;;;2.00;100220.00;;;;5035944;28;20038;-62
2023/12/18 03:41:22;;;;;;;36.78;14.90;;;;;2.00;100220.00;;;;5036257;28;20045;-61
2023/12/18 03:43:50;;;;;;;23.63;13.65;;;;;2.10;100220.00;;;;5035210;28;20121;-63
2023/12/18 03:46:17;;;;;;;41.97;15.50;;;;;2.00;100215.00;;;;5036156;28;20053;-63
2023/12/18 03:48:43;;;;;;;34.30;14.75;;;;;1.90;100216.00;;;;5035868;28;20044;-62
2023/12/18 03:51:10;;;;;;;43.67;15.43;;;;;2.00;100212.00;;;;5035358;28;20072;-62
2023/12/18 03:53:37;;;;;;;22.98;13.13;;;;;1.90;100205.00;;;;5034775;28;20057;-61
2023/12/18 03:56:04;;;;;;;29.00;13.95;;;;;1.90;100208.00;;;;5034655;28;20045;-60
2023/12/18 03:58:31;;;;;;;30.88;14.10;;;;;2.00;100216.00;;;;5032923;28;20041;-60
2023/12/18 04:00:57;;;;;;;47.25;14.90;;;;;2.00;100210.00;;;;5032641;28;20053;-61
2023/12/18 04:03:24;;;;;;;36.50;13.38;;;;;1.80;100203.00;;;;5031816;28;20060;-62
2023/12/18 04:05:51;;;;;;;29.42;12.93;;;;;1.70;100204.00;;;;5032508;28;20099;-60
2023/12/18 04:08:17;;;;;;;33.65;13.43;;;;;1.60;100200.00;;;;5014738;28;20065;-62
2023/12/18 04:10:44;;;;;;;33.35;14.38;;;;;1.60;100193.00;;;;5032485;28;20079;-61
2023/12/18 04:13:10;;;;;;;20.95;13.73;;;;;1.60;100205.00;;;;5032435;28;20128;-60
2023/12/18 04:15:37;;;;;;;20.35;13.55;;;;;1.60;100199.00;;;;5031941;28;20072;-60
2023/12/18 04:18:06;;;;;;;20.13;13.93;;;;;1.60;100198.00;;;;5032232;28;20061;-62
2023/12/18 04:20:33;;;;;;;20.38;12.70;;;;;1.60;100197.00;;;;5032238;28;20045;-60
2023/12/18 04:23:00;;;;;;;20.85;13.18;;;;;1.60;100204.00;;;;5032102;28;20103;-61
2023/12/18 04:25:27;;;;;;;20.25;13.32;;;;;1.60;100206.00;;;;5031815;28;20037;-61
2023/12/18 04:27:53;;;;;;;19.63;12.60;;;;;1.70;100207.00;;;;5032238;28;20042;-60
2023/12/18 04:30:20;;;;;;;21.52;12.48;;;;;1.70;100210.00;;;;5032080;28;20037;-62
2023/12/18 04:32:47;;;;;;;30.33;13.55;;;;;1.70;100202.00;;;;5032224;28;20099;-60
2023/12/18 04:35:13;;;;;;;34.97;13.25;;;;;1.60;100202.00;;;;5031587;28;20183;-60
2023/12/18 04:37:41;;;;;;;29.13;13.48;;;;;1.70;100199.00;;;;5032553;28;20056;-61
2023/12/18 04:40:08;;;;;;;31.73;14.13;;;;;1.70;100211.00;;;;5032092;28;20441;-61
2023/12/18 04:42:35;;;;;;;66.60;17.05;;;;;1.70;100209.00;;;;5032069;28;20132;-61
2023/12/18 04:45:02;;;;;;;30.77;13.88;;;;;1.70;100210.00;;;;5031547;28;20041;-64
2023/12/18 04:47:28;;;;;;;26.38;13.63;;;;;1.70;100213.00;;;;5031917;28;20395;-63
2023/12/18 04:49:55;;;;;;;44.60;14.07;;;;;1.70;100211.00;;;;5031230;28;20046;-64
2023/12/18 04:52:22;;;;;;;28.38;13.20;;;;;1.70;100200.00;;;;5032023;28;20045;-64
2023/12/18 04:54:48;;;;;;;31.17;13.52;;;;;1.60;100211.00;;;;5031409;28;20053;-64
2023/12/18 04:57:15;;;;;;;51.28;14.82;;;;;1.60;100212.00;;;;5031959;28;20073;-63
2023/12/18 04:59:42;;;;;;;60.90;15.55;;;;;1.60;100211.00;;;;5032114;28;20459;-64
2023/12/18 05:02:08;;;;;;;33.67;15.27;;;;;1.60;100223.00;;;;5031845;28;20073;-64
2023/12/18 05:04:35;;;;;;;31.27;13.13;;;;;1.60;100231.00;;;;5031215;28;20073;-64
2023/12/18 05:07:02;;;;;;;25.80;14.10;;;;;1.60;100228.00;;;;5030581;28;20132;-64
2023/12/18 05:09:28;;;;;;;18.63;13.35;;;;;1.50;100221.00;;;;5031790;28;20399;-63
2023/12/18 05:11:55;;;;;;;19.88;13.27;;;;;1.60;100231.00;;;;5030618;28;20049;-63
2023/12/18 05:14:21;;;;;;;23.70;14.15;;;;;1.60;100229.00;;;;5030056;28;20042;-62
2023/12/18 05:16:48;;;;;;;24.27;12.95;;;;;1.60;100240.00;;;;5031712;28;20046;-63
2023/12/18 05:19:14;;;;;;;21.80;12.77;;;;;1.60;100234.00;;;;5031637;28;20033;-63
2023/12/18 05:21:41;;;;;;;29.02;13.00;;;;;1.70;100230.00;;;;5031574;28;20057;-63
2023/12/18 05:24:08;;;;;;;24.95;14.18;;;;;1.70;100229.00;;;;5031015;28;20075;-63
2023/12/18 05:26:35;;;;;;;22.45;14.05;;;;;1.80;100227.00;;;;5031584;28;20041;-64
2023/12/18 05:29:01;;;;;;;28.73;13.93;;;;;1.80;100222.00;;;;5031631;28;20462;-64
2023/12/18 05:31:28;;;;;;;26.20;13.48;;;;;1.90;100228.00;;;;5031605;28;20051;-63
2023/12/18 05:33:55;;;;;;;20.73;13.77;;;;;1.90;100229.00;;;;5030869;28;20052;-64
2023/12/18 05:36:22;;;;;;;25.45;14.25;;;;;2.00;100234.00;;;;5031520;28;20037;-64
2023/12/18 05:38:48;;;;;;;19.35;12.95;;;;;2.00;100243.00;;;;5031586;28;20041;-64
2023/12/18 05:41:15;;;;;;;22.95;12.43;;;;;2.00;100229.00;;;;5031521;28;20074;-64
2023/12/18 05:43:42;;;;;;;22.63;14.02;;;;;2.00;100235.00;;;;5031087;28;20119;-64
2023/12/18 05:46:14;;;;;;;33.50;13.63;;;;;2.00;100233.00;;;;5030372;28;20046;-63
2023/12/18 05:48:41;;;;;;;33.17;13.18;;;;;2.00;100237.00;;;;5031669;28;20049;-63
2023/12/18 05:51:20;;;;;;;76.10;14.63;;;;;2.00;100239.00;;;;5014109;28;20103;-64
2023/12/18 05:53:47;;;;;;;36.88;14.13;;;;;1.80;100235.00;;;;5030955;28;20045;-63
2023/12/18 05:56:15;;;;;;;43.63;14.75;;;;;1.80;100240.00;;;;5031619;28;20068;-64
2023/12/18 05:58:41;;;;;;;23.55;13.88;;;;;1.70;100241.00;;;;5031437;28;20406;-64
2023/12/18 06:01:08;;;;;;;34.95;13.52;;;;;1.70;100240.00;;;;5031987;28;20045;-64
2023/12/18 06:03:35;;;;;;;57.50;15.90;;;;;1.70;100247.00;;;;5034038;28;20045;-64
2023/12/18 06:06:02;;;;;;;39.40;12.35;;;;;1.70;100253.00;;;;5034802;28;20383;-64
2023/12/18 06:08:29;;;;;;;32.33;15.13;;;;;1.80;100249.00;;;;5034866;28;20046;-64
2023/12/18 06:10:55;;;;;;;22.67;13.35;;;;;1.80;100248.00;;;;5034859;28;20037;-63
2023/12/18 06:13:22;;;;;;;46.40;14.68;;;;;1.80;100247.00;;;;5034364;28;20045;-62
2023/12/18 06:15:48;;;;;;;27.17;14.35;;;;;1.90;100244.00;;;;5034529;28;20045;-64
2023/12/18 06:18:15;;;;;;;24.88;14.43;;;;;1.90;100240.00;;;;5034480;28;20041;-63
2023/12/18 06:20:42;;;;;;;26.80;15.15;;;;;2.00;100241.00;;;;5034503;28;20120;-64
2023/12/18 06:23:08;;;;;;;47.50;14.82;;;;;2.00;100239.00;;;;5033268;28;20051;-64
2023/12/18 06:25:35;;;;;;;24.38;13.63;;;;;2.00;100242.00;;;;5033125;28;20052;-64
2023/12/18 06:28:02;;;;;;;25.70;14.02;;;;;2.00;100235.00;;;;5034678;28;20080;-62
2023/12/18 06:30:29;;;;;;;28.77;14.45;;;;;2.00;100242.00;;;;5035036;28;20073;-64
2023/12/18 06:32:55;;;;;;;22.90;14.63;;;;;2.00;100236.00;;;;5033429;28;20056;-63
2023/12/18 06:35:22;;;;;;;19.83;13.38;;;;;2.00;100239.00;;;;5033977;28;20079;-63
2023/12/18 06:37:49;;;;;;;24.33;13.77;;;;;2.10;100238.00;;;;5033246;28;20494;-63
2023/12/18 06:40:16;;;;;;;24.45;13.77;;;;;2.20;100250.00;;;;5034460;28;20149;-64
2023/12/18 06:42:42;;;;;;;20.20;13.55;;;;;2.30;100248.00;;;;5034296;28;20076;-65
2023/12/18 06:45:10;;;;;;;24.27;13.40;;;;;2.30;100237.00;;;;5033845;28;20049;-63
2023/12/18 06:47:36;;;;;;;22.20;13.57;;;;;2.30;100235.00;;;;5034274;28;20045;-63
2023/12/18 06:50:04;;;;;;;21.67;13.43;;;;;2.30;100242.00;;;;5033005;28;20069;-64
2023/12/18 06:52:30;;;;;;;31.63;14.48;;;;;2.20;100238.00;;;;5032925;28;20466;-61
2023/12/18 06:54:57;;;;;;;38.05;14.07;;;;;2.00;100239.00;;;;5033507;28;20410;-63
2023/12/18 06:57:23;;;;;;;42.00;15.57;;;;;1.70;100236.00;;;;5033999;28;20049;-65
2023/12/18 06:59:51;;;;;;;66.88;16.40;;;;;1.60;100230.00;;;;5032954;28;20120;-63
2023/12/18 07:02:18;;;;;;;24.85;13.38;;;;;1.60;100235.00;;;;5044310;28;20106;-63
2023/12/18 07:04:44;;;;;;;28.83;14.65;;;;;1.60;100239.00;;;;5053217;28;20075;-64
2023/12/18 07:07:11;;;;;;;53.50;14.77;;;;;1.50;100245.00;;;;5053350;28;20469;-64
2023/12/18 07:09:37;;;;;;;22.00;12.95;;;;;1.30;100238.00;;;;5053340;28;20040;-62
2023/12/18 07:12:05;;;;;;;30.92;13.45;;;;;1.30;100241.00;;;;5053571;28;20445;-63
2023/12/18 07:14:31;;;;;;;17.02;12.50;;;;;1.30;100237.00;;;;5052552;28;20098;-63
2023/12/18 07:16:58;;;;;;;20.10;13.38;;;;;1.20;100244.00;;;;5052091;28;20041;-63
2023/12/18 07:19:24;;;;;;;19.65;12.80;;;;;1.10;100246.00;;;;5053375;28;20036;-63
2023/12/18 07:21:51;;;;;;;19.05;13.48;;;;;1.20;100242.00;;;;5053227;28;20049;-63
2023/12/18 07:24:18;;;;;;;20.40;13.98;;;;;1.30;100251.00;;;;5052763;28;20041;-63
2023/12/18 07:26:45;;;;;;;18.95;13.40;;;;;1.30;100246.00;;;;5053188;28;20041;-63
2023/12/18 07:29:11;;;;;;;18.00;12.82;;;;;1.50;100237.00;;;;5053106;28;20128;-63
2023/12/18 07:31:38;;;;;;;18.85;12.73;;;;;1.60;100239.00;;;;5051774;28;20076;-64
2023/12/18 07:34:05;;;;;;;21.20;13.60;;;;;1.50;100239.00;;;;5052446;28;20402;-63
2023/12/18 07:36:35;;;;;;;22.05;13.43;;;;;1.30;100234.00;;;;5052925;28;20044;-63
2023/12/18 07:39:02;;;;;;;21.65;14.45;;;;;1.30;100242.00;;;;5052951;28;20498;-63
2023/12/18 07:41:30;;;;;;;17.15;12.93;;;;;1.40;100240.00;;;;5052963;28;20045;-64
2023/12/18 07:43:57;;;;;;;19.77;13.15;;;;;1.30;100239.00;;;;5053094;28;20053;-63
2023/12/18 07:46:24;;;;;;;20.17;13.75;;;;;1.30;100230.00;;;;5052800;28;20080;-62
2023/12/18 07:48:51;;;;;;;23.25;13.98;;;;;1.30;100236.00;;;;5052724;28;20124;-64
2023/12/18 07:51:17;;;;;;;20.95;14.65;;;;;1.30;100232.00;;;;5034886;28;20041;-63
2023/12/18 07:53:44;;;;;;;20.65;12.48;;;;;1.40;100234.00;;;;5052133;28;20049;-64
2023/12/18 07:56:11;;;;;;;20.60;13.88;;;;;1.50;100233.00;;;;5052803;28;20065;-63
2023/12/18 07:58:40;;;;;;;24.85;14.60;;;;;1.40;100238.00;;;;5052791;28;20120;-63
2023/12/18 08:01:06;;;;;;;21.15;14.43;;;;;1.40;100239.00;;;;5052694;28;20041;-62
2023/12/18 08:03:33;;;;;;;22.60;14.98;;;;;1.30;100237.00;;;;5051793;28;20486;-63
2023/12/18 08:06:00;;;;;;;23.02;15.82;;;;;1.40;100228.00;;;;5052426;28;20040;-63
2023/12/18 08:08:26;;;;;;;22.10;13.77;;;;;1.50;100236.00;;;;5051327;28;20128;-62
2023/12/18 08:10:53;;;;;;;21.02;14.23;;;;;1.60;100224.00;;;;5052867;28;20503;-62
2023/12/18 08:13:20;;;;;;;22.25;13.93;;;;;1.70;100226.00;;;;5053043;28;20053;-62
2023/12/18 08:15:46;;;;;;;24.77;15.15;;;;;1.90;100230.00;;;;5052010;28;20119;-61
2023/12/18 08:18:15;;;;;;;23.17;14.30;;;;;2.00;100224.00;;;;5051044;28;20052;-63
2023/12/18 08:20:43;;;;;;;21.50;14.20;;;;;2.10;100217.00;;;;5052400;28;20189;-62
2023/12/18 08:23:10;;;;;;;20.90;13.98;;;;;2.10;100222.00;;;;5052280;28;20075;-63
2023/12/18 08:25:37;;;;;;;23.27;14.88;;;;;2.20;100214.00;;;;5050882;28;20132;-62
2023/12/18 08:28:03;;;;;;;21.92;13.77;;;;;2.20;100214.00;;;;5052245;28;20135;-63
2023/12/18 08:30:30;;;;;;;19.63;13.52;;;;;2.20;100209.00;;;;5052316;28;20044;-63
2023/12/18 08:32:57;;;;;;;19.50;12.60;;;;;2.10;100216.00;;;;5052464;28;20045;-63
2023/12/18 08:35:24;;;;;;;21.42;13.38;;;;;2.10;100212.00;;;;5051609;28;20072;-63
2023/12/18 08:37:50;;;;;;;20.08;12.80;;;;;2.00;100218.00;;;;5051033;28;20040;-64
2023/12/18 08:40:17;;;;;;;18.95;13.75;;;;;2.00;100225.00;;;;5052138;28;20678;-64
2023/12/18 08:42:43;;;;;;;19.42;12.90;;;;;2.00;100222.00;;;;5052104;28;20059;-63
2023/12/18 08:45:10;;;;;;;19.00;12.73;;;;;2.00;100229.00;;;;5051410;28;20052;-64
2023/12/18 08:47:37;;;;;;;16.85;11.80;;;;;2.00;100223.00;;;;5051761;28;20037;-64
2023/12/18 08:50:04;;;;;;;15.88;12.77;;;;;2.00;100217.00;;;;5050591;28;20494;-64
2023/12/18 08:52:30;;;;;;;15.43;11.35;;;;;2.10;100227.00;;;;5052036;28;20048;-64
2023/12/18 08:54:57;;;;;;;15.80;11.48;;;;;2.10;100221.00;;;;5051252;28;20040;-64
2023/12/18 08:57:23;;;;;;;18.52;12.48;;;;;2.20;100218.00;;;;5050728;28;20041;-63
2023/12/18 08:59:51;;;;;;;18.15;13.05;;;;;2.20;100211.00;;;;5050547;28;20094;-63
2023/12/18 09:02:18;;;;;;;18.70;13.02;;;;;2.30;100213.00;;;;5050392;28;20041;-63
2023/12/18 09:04:45;;;;;;;20.10;12.93;;;;;2.40;100223.00;;;;5050032;28;20063;-63
2023/12/18 09:07:12;;;;;;;17.70;12.20;;;;;2.40;100219.00;;;;5051820;28;20049;-64
2023/12/18 09:09:39;;;;;;;18.17;12.57;;;;;2.50;100211.00;;;;5052040;28;20047;-64
2023/12/18 09:12:07;;;;;;;20.98;13.55;;;;;2.60;100214.00;;;;5051798;28;20132;-63
2023/12/18 09:14:35;;;;;;;18.48;12.90;;;;;2.60;100212.00;;;;5051486;28;20453;-64
2023/12/18 09:17:03;;;;;;;19.73;14.00;;;;;2.70;100211.00;;;;5034006;28;20100;-65
2023/12/18 09:19:29;;;;;;;21.77;14.15;;;;;2.80;100212.00;;;;5052178;28;20044;-64
2023/12/18 09:21:56;;;;;;;22.83;14.20;;;;;2.90;100225.00;;;;5052004;28;20480;-61
2023/12/18 09:24:25;;;;;;;19.90;12.75;;;;;3.00;100215.00;;;;5050953;28;20068;-62
2023/12/18 09:26:52;;;;;;;17.20;11.48;;;;;3.00;100209.00;;;;5051680;28;20045;-63
2023/12/18 09:29:18;;;;;;;17.52;12.43;;;;;3.10;100202.00;;;;5051466;28;20060;-62
2023/12/18 09:31:45;;;;;;;15.98;11.73;;;;;3.20;100205.00;;;;5051547;28;20044;-63
2023/12/18 09:34:12;;;;;;;17.23;12.43;;;;;3.30;100209.00;;;;5049806;28;20464;-63
2023/12/18 09:36:39;;;;;;;16.48;12.23;;;;;3.40;100206.00;;;;5053416;28;20417;-63
2023/12/18 09:39:05;;;;;;;17.00;11.68;;;;;3.50;100209.00;;;;5054210;28;20049;-63
2023/12/18 09:41:32;;;;;;;16.52;11.65;;;;;3.60;100200.00;;;;5055271;28;20075;-63
2023/12/18 09:43:59;;;;;;;16.98;12.30;;;;;3.70;100199.00;;;;5054496;28;20069;-62
2023/12/18 09:46:26;;;;;;;17.83;12.70;;;;;3.80;100196.00;;;;5055162;28;20064;-62
2023/12/18 09:48:53;;;;;;;20.75;13.05;;;;;3.90;100206.00;;;;5053974;28;20628;-62
2023/12/18 09:51:22;;;;;;;20.58;13.52;;;;;4.10;100202.00;;;;5055027;28;20112;-63
2023/12/18 09:53:51;;;;;;;18.38;12.63;;;;;4.20;100204.00;;;;5053133;28;20602;-63
2023/12/18 09:56:23;;;;;;;22.15;13.05;;;;;4.30;100212.00;;;;5054876;28;20051;-63
2023/12/18 09:58:54;;;;;;;17.52;12.35;;;;;4.30;100203.00;;;;5053624;28;20129;-62
2023/12/18 10:01:21;;;;;;;17.58;12.60;;;;;4.40;100206.00;;;;5053756;28;20486;-63
2023/12/18 10:03:48;;;;;;;18.83;12.52;;;;;4.40;100200.00;;;;5053052;28;20045;-64
2023/12/18 10:06:15;;;;;;;20.23;14.50;;;;;4.50;100193.00;;;;5054738;28;20544;-63
2023/12/18 10:08:44;;;;;;;23.85;13.93;;;;;4.50;100200.00;;;;5037170;28;20494;-63
2023/12/18 10:11:25;;;;;;;17.08;13.20;;;;;4.60;100206.00;;;;5053639;28;20049;-63
2023/12/18 10:13:53;;;;;;;19.52;13.20;;;;;4.60;100206.00;;;;5054025;28;20048;-63
2023/12/18 10:16:21;;;;;;;18.25;13.68;;;;;4.70;100204.00;;;;5054621;28;20114;-63
2023/12/18 10:18:47;;;;;;;21.40;13.45;;;;;4.80;100207.00;;;;5054583;28;20489;-64
2023/12/18 10:21:21;;;;;;;19.10;13.55;;;;;4.80;100196.00;;;;5054450;28;20047;-62
2023/12/18 10:23:48;;;;;;;20.67;14.18;;;;;4.90;100192.00;;;;5035963;28;20079;-63
2023/12/18 10:26:14;;;;;;;19.73;14.32;;;;;5.00;100196.00;;;;5054324;28;20073;-62
2023/12/18 10:28:41;;;;;;;17.27;12.13;;;;;5.00;100198.00;;;;5054301;28;20494;-63
2023/12/18 10:31:09;;;;;;;18.48;12.95;;;;;5.10;100198.00;;;;5054518;28;20118;-63
2023/12/18 10:33:37;;;;;;;20.45;13.52;;;;;5.10;100203.00;;;;5052559;28;20087;-63
2023/12/18 10:36:07;;;;;;;16.95;12.60;;;;;5.20;100197.00;;;;5054233;28;20041;-63
2023/12/18 10:38:36;;;;;;;18.23;13.20;;;;;5.30;100197.00;;;;5053002;28;20130;-63
2023/12/18 10:41:03;;;;;;;15.88;12.35;;;;;5.40;100207.00;;;;5054200;28;20043;-64
2023/12/18 10:43:34;;;;;;;16.67;12.38;;;;;5.50;100187.00;;;;5053878;28;20045;-63
2023/12/18 10:46:03;;;;;;;16.35;11.93;;;;;5.50;100190.00;;;;5054021;28;20041;-63
2023/12/18 10:48:31;;;;;;;18.60;12.45;;;;;5.50;100183.00;;;;5051947;28;20162;-63
2023/12/18 10:51:01;;;;;;;17.73;11.68;;;;;5.50;100184.00;;;;5054117;28;20045;-64
2023/12/18 10:53:29;;;;;;;17.45;12.10;;;;;5.60;100182.00;;;;5053267;28;20079;-63
2023/12/18 10:55:58;;;;;;;14.93;11.77;;;;;5.60;100178.00;;;;5053714;28;20044;-64
2023/12/18 10:58:24;;;;;;;16.33;12.85;;;;;5.70;100185.00;;;;5053864;28;20404;-63
2023/12/18 11:00:52;;;;;;;17.42;12.10;;;;;5.70;100185.00;;;;5052539;28;20064;-64
2023/12/18 11:03:26;;;;;;;16.80;11.80;;;;;5.80;100178.00;;;;5052385;28;20095;-62
2023/12/18 11:05:56;;;;;;;19.98;12.23;;;;;5.90;100173.00;;;;5052524;28;20045;-63
2023/12/18 11:08:24;;;;;;;15.32;11.82;;;;;5.90;100169.00;;;;5053562;28;20052;-63
2023/12/18 11:10:52;;;;;;;18.80;11.88;;;;;6.00;100178.00;;;;5052381;28;20545;-64
2023/12/18 11:13:26;;;;;;;16.48;12.25;;;;;6.10;100176.00;;;;5052567;28;20379;-63
2023/12/18 11:16:16;;;;;;;18.45;11.75;;;;;6.20;100171.00;;;;5052262;28;20045;-64
2023/12/18 11:19:09;;;;;;;17.35;12.40;;;;;6.30;100167.00;;;;5052258;28;20072;-64
2023/12/18 11:21:49;;;;;;;16.92;11.63;;;;;6.40;100158.00;;;;5053276;28;20486;-63
2023/12/18 11:24:17;;;;;;;19.52;12.43;;;;;6.40;100163.00;;;;5052667;28;20045;-62
2023/12/18 11:26:45;;;;;;;15.35;11.43;;;;;6.40;100150.00;;;;5053100;28;20119;-62
2023/12/18 11:29:37;;;;;;;15.55;10.82;;;;;6.40;100147.00;;;;5053367;28;20041;-64
2023/12/18 11:32:04;;;;;;;16.70;12.05;;;;;6.50;100141.00;;;;5051697;28;20080;-62
2023/12/18 11:34:31;;;;;;;16.17;11.13;;;;;6.60;100141.00;;;;5051131;28;20143;-63
2023/12/18 11:36:58;;;;;;;14.60;11.07;;;;;6.70;100141.00;;;;5053061;28;20052;-64
2023/12/18 11:39:41;;;;;;;16.40;11.77;;;;;6.70;100135.00;;;;5051731;28;20139;-63
2023/12/18 11:42:10;;;;;;;19.08;12.80;;;;;6.80;100141.00;;;;5053022;28;20041;-64
2023/12/18 11:44:37;;;;;;;16.95;12.38;;;;;6.90;100132.00;;;;5051005;28;20045;-63
2023/12/18 11:47:05;;;;;;;14.32;11.85;;;;;6.90;100134.00;;;;5052925;28;20450;-64
2023/12/18 11:49:32;;;;;;;17.98;11.48;;;;;6.90;100133.00;;;;5052862;28;20556;-64
2023/12/18 11:52:15;;;;;;;24.80;13.60;;;;;7.00;100121.00;;;;5051386;28;20045;-63
2023/12/18 11:54:41;;;;;;;20.30;12.32;;;;;7.00;100118.00;;;;5034333;28;20069;-64
2023/12/18 11:57:16;;;;;;;18.98;13.05;;;;;7.00;100110.00;;;;5051480;28;20048;-64
2023/12/18 11:59:44;;;;;;;19.40;13.45;;;;;7.00;100111.00;;;;5051635;28;20173;-65